createdAt,value
2023-01-01T00:00:12.691Z,47.02
2023-01-01T00:02:40.254Z,47.25
2023-01-01T00:05:10.653Z,46.86
2023-01-01T00:07:42.449Z,47.17
2023-01-01T00:10:33.114Z,47.12
2023-01-01T00:13:07.420Z,47.31
2023-01-01T00:15:39.578Z,47.38
2023-01-01T00:18:06.678Z,47.32
2023-01-01T00:20:35.524Z,46.79
2023-01-01T00:23:08.455Z,47.27
2023-01-01T00:25:45.151Z,47.46
2023-01-01T00:28:18.572Z,47.06
2023-01-01T00:30:49.700Z,46.91
2023-01-01T00:33:24.599Z,47.15
2023-01-01T00:36:04.607Z,47.14
2023-01-01T00:38:40.371Z,47.14
2023-01-01T00:41:17.769Z,47.21
2023-01-01T00:43:53.629Z,47.03
2023-01-01T00:46:23.088Z,46.89
2023-01-01T00:48:51.663Z,46.97
2023-01-01T00:51:30.506Z,47.06
2023-01-01T00:54:24.219Z,47.31
2023-01-01T00:56:59.719Z,46.61
2023-01-01T00:59:54.507Z,46.45
2023-01-01T01:02:51.651Z,46.49
2023-01-01T01:06:10.679Z,46.36
2023-01-01T01:08:51.401Z,46.30
2023-01-01T01:11:32.526Z,46.39
2023-01-01T01:14:31.478Z,46.55
2023-01-01T01:17:00.992Z,46.59
2023-01-01T01:19:28.241Z,46.44
2023-01-01T01:21:56.332Z,46.69
2023-01-01T01:24:23.586Z,46.68
2023-01-01T01:26:50.521Z,46.99
2023-01-01T01:29:18.924Z,46.50
2023-01-01T01:31:46.038Z,46.50
2023-01-01T01:34:27.224Z,46.78
2023-01-01T01:36:56.739Z,46.49
2023-01-01T01:39:25.328Z,46.28
2023-01-01T01:41:52.788Z,46.28
2023-01-01T01:44:41.315Z,46.41
2023-01-01T01:47:15.450Z,46.33
2023-01-01T01:49:44.861Z,46.08
2023-01-01T01:52:12.709Z,46.17
2023-01-01T01:54:42.514Z,46.13
2023-01-01T01:57:33.559Z,46.26
2023-01-01T02:00:17.253Z,45.92
2023-01-01T02:02:53.076Z,45.82
2023-01-01T02:05:28.869Z,45.51
2023-01-01T02:07:59.209Z,45.67
2023-01-01T02:10:33.213Z,45.43
2023-01-01T02:13:00.736Z,45.33
2023-01-01T02:15:41.005Z,45.26
2023-01-01T02:18:19.391Z,44.96
2023-01-01T02:21:07.013Z,44.77
2023-01-01T02:24:01.833Z,44.57
2023-01-01T02:26:44.850Z,44.98
2023-01-01T02:29:25.453Z,44.93
2023-01-01T02:32:02.073Z,44.93
2023-01-01T02:34:34.467Z,44.73
2023-01-01T02:37:06.004Z,44.93
2023-01-01T02:39:41.494Z,44.97
2023-01-01T02:42:10.212Z,44.97
2023-01-01T02:44:44.982Z,44.94
2023-01-01T02:47:15.303Z,45.11
2023-01-01T02:49:51.105Z,44.95
2023-01-01T02:52:37.093Z,45.11
2023-01-01T02:58:41.991Z,44.51
2023-01-01T03:01:16.784Z,44.74
2023-01-01T03:04:00.156Z,44.38
2023-01-01T03:06:51.710Z,44.61
2023-01-01T03:09:28.343Z,44.39
2023-01-01T03:12:02.684Z,44.35
2023-01-01T03:14:59.469Z,44.53
2023-01-01T03:17:42.619Z,44.70
2023-01-01T03:20:13.938Z,44.48
2023-01-01T03:25:20.502Z,44.69
2023-01-01T03:27:49.950Z,44.42
2023-01-01T03:30:20.479Z,44.80
2023-01-01T03:33:00.727Z,44.34
2023-01-01T03:35:47.514Z,44.29
2023-01-01T03:38:26.473Z,44.46
2023-01-01T03:40:59.527Z,44.56
2023-01-01T03:43:37.088Z,45.09
2023-01-01T03:46:12.854Z,44.81
2023-01-01T03:49:03.893Z,45.20
2023-01-01T03:51:53.091Z,44.61
2023-01-01T03:54:31.432Z,44.92
2023-01-01T03:57:08.518Z,44.78
2023-01-01T04:00:01.297Z,44.94
2023-01-01T04:02:49.138Z,44.89
2023-01-01T04:05:34.679Z,45.16
2023-01-01T04:08:08.899Z,45.29
2023-01-01T04:10:44.316Z,44.61
2023-01-01T04:13:21.224Z,45.45
2023-01-01T04:15:57.715Z,45.26
2023-01-01T04:18:45.188Z,45.02
2023-01-01T04:21:17.134Z,45.32
2023-01-01T04:23:49.816Z,44.95
2023-01-01T04:26:25.468Z,45.13
2023-01-01T04:28:59.858Z,45.05
2023-01-01T04:31:39.371Z,44.95
2023-01-01T04:34:15.228Z,44.78
2023-01-01T04:36:53.839Z,45.14
2023-01-01T04:39:29.377Z,44.73
2023-01-01T04:42:12.781Z,44.50
2023-01-01T04:45:02.732Z,44.89
2023-01-01T04:47:35.661Z,44.75
2023-01-01T04:50:12.652Z,44.63
2023-01-01T04:52:46.728Z,44.80
2023-01-01T04:55:25.096Z,44.62
2023-01-01T04:58:07.201Z,44.93
2023-01-01T05:00:47.556Z,44.95
2023-01-01T05:03:24.552Z,45.01
2023-01-01T05:06:23.442Z,44.92
2023-01-01T05:08:59.655Z,44.82
2023-01-01T05:11:34.370Z,44.58
2023-01-01T05:14:10.339Z,44.82
2023-01-01T05:16:45.736Z,44.97
2023-01-01T05:19:16.859Z,44.78
2023-01-01T05:21:54.893Z,45.26
2023-01-01T05:24:25.208Z,45.10
2023-01-01T05:26:59.044Z,45.78
2023-01-01T05:29:40.133Z,45.32
2023-01-01T05:34:45.662Z,45.24
2023-01-01T05:37:39.132Z,45.54
2023-01-01T05:40:17.613Z,45.60
2023-01-01T05:42:58.812Z,45.72
2023-01-01T05:45:35.388Z,45.72
2023-01-01T05:48:07.425Z,45.91
2023-01-01T05:50:45.997Z,45.81
2023-01-01T05:53:19.810Z,45.73
2023-01-01T05:56:01.741Z,45.62
2023-01-01T05:58:39.153Z,45.76
2023-01-01T06:01:22.730Z,45.68
2023-01-01T06:04:09.830Z,45.72
2023-01-01T06:06:49.836Z,45.89
2023-01-01T06:09:31.727Z,46.01
2023-01-01T06:12:09.715Z,45.91
2023-01-01T06:14:52.933Z,46.13
2023-01-01T06:17:36.598Z,46.29
2023-01-01T06:20:05.283Z,45.89
2023-01-01T06:22:42.020Z,46.63
2023-01-01T06:25:19.586Z,46.29
2023-01-01T06:27:58.157Z,46.51
2023-01-01T06:30:41.761Z,46.02
2023-01-01T06:33:19.472Z,46.10
2023-01-01T06:35:57.892Z,46.12
2023-01-01T06:38:37.456Z,46.35
2023-01-01T06:41:12.179Z,46.38
2023-01-01T06:43:49.992Z,46.85
2023-01-01T06:46:25.300Z,46.73
2023-01-01T06:49:00.984Z,46.77
2023-01-01T06:51:44.403Z,46.68
2023-01-01T06:54:16.853Z,46.63
2023-01-01T06:57:03.092Z,46.42
2023-01-01T06:59:34.435Z,46.00
2023-01-01T07:02:14.981Z,46.28
2023-01-01T07:05:00.049Z,46.28
2023-01-01T07:07:31.189Z,45.58
2023-01-01T07:10:03.673Z,45.42
2023-01-01T07:12:32.989Z,45.63
2023-01-01T07:15:02.567Z,45.40
2023-01-01T07:17:34.267Z,45.32
2023-01-01T07:20:05.970Z,45.22
2023-01-01T07:22:44.131Z,45.24
2023-01-01T07:25:15.372Z,45.55
2023-01-01T07:27:49.853Z,45.16
2023-01-01T07:30:16.989Z,45.29
2023-01-01T07:32:44.361Z,45.35
2023-01-01T07:35:11.426Z,45.43
2023-01-01T07:37:38.675Z,44.70
2023-01-01T07:40:06.108Z,45.06
2023-01-01T07:42:38.521Z,45.18
2023-01-01T07:45:11.382Z,44.84
2023-01-01T07:47:42.296Z,45.17
2023-01-01T07:50:18.706Z,44.95
2023-01-01T07:52:49.019Z,45.06
2023-01-01T07:55:20.585Z,44.81
2023-01-01T07:57:49.297Z,45.11
2023-01-01T08:00:19.078Z,45.79
2023-01-01T08:02:49.862Z,45.25
2023-01-01T08:05:22.648Z,45.06
2023-01-01T08:07:56.595Z,45.47
2023-01-01T08:10:26.632Z,45.25
2023-01-01T08:13:04.823Z,44.74
2023-01-01T08:15:35.476Z,44.71
2023-01-01T08:18:05.916Z,44.83
2023-01-01T08:20:33.984Z,45.23
2023-01-01T08:23:07.648Z,44.77
2023-01-01T08:25:40.357Z,44.56
2023-01-01T08:28:10.759Z,44.78
2023-01-01T08:30:43.495Z,44.46
2023-01-01T08:33:17.370Z,44.09
2023-01-01T08:35:54.076Z,44.36
2023-01-01T08:38:27.620Z,44.09
2023-01-01T08:41:03.269Z,44.48
2023-01-01T08:43:33.411Z,44.09
2023-01-01T08:46:04.142Z,44.21
2023-01-01T08:48:34.682Z,43.81
2023-01-01T08:51:07.388Z,43.62
2023-01-01T08:53:34.468Z,44.42
2023-01-01T08:56:08.770Z,43.28
2023-01-01T08:58:37.067Z,44.21
2023-01-01T09:01:07.643Z,44.44
2023-01-01T09:03:35.143Z,43.15
2023-01-01T09:06:05.108Z,42.84
2023-01-01T09:08:35.050Z,42.55
2023-01-01T09:11:02.957Z,43.39
2023-01-01T09:13:30.287Z,43.24
2023-01-01T09:15:57.819Z,42.77
2023-01-01T09:18:25.040Z,42.99
2023-01-01T09:20:52.397Z,42.04
2023-01-01T09:23:26.863Z,41.83
2023-01-01T09:26:02.418Z,42.06
2023-01-01T09:28:32.751Z,42.21
2023-01-01T09:31:12.178Z,42.06
2023-01-01T09:33:46.551Z,42.52
2023-01-01T09:36:33.161Z,43.04
2023-01-01T09:39:02.715Z,43.11
2023-01-01T09:41:44.661Z,43.14
2023-01-01T09:44:26.544Z,42.40
2023-01-01T09:47:03.253Z,42.42
2023-01-01T09:49:49.656Z,43.30
2023-01-01T09:52:23.505Z,42.74
2023-01-01T09:55:01.579Z,42.84
2023-01-01T09:57:33.150Z,42.47
2023-01-01T10:00:01.063Z,42.15
2023-01-01T10:03:04.896Z,42.12
2023-01-01T10:05:47.849Z,42.09
2023-01-01T10:08:29.474Z,41.99
2023-01-01T10:10:57.275Z,42.20
2023-01-01T10:13:41.775Z,41.76
2023-01-01T10:16:32.023Z,41.78
2023-01-01T10:19:03.255Z,42.04
2023-01-01T10:21:42.104Z,42.26
2023-01-01T10:24:39.661Z,42.36
2023-01-01T10:27:09.123Z,42.74
2023-01-01T10:29:43.273Z,42.57
2023-01-01T10:32:28.959Z,42.24
2023-01-01T10:35:03.901Z,42.25
2023-01-01T10:37:39.333Z,42.29
2023-01-01T10:40:28.876Z,41.36
2023-01-01T10:43:03.246Z,40.53
2023-01-01T10:45:35.653Z,39.37
2023-01-01T10:48:19.456Z,37.73
2023-01-01T10:51:03.789Z,36.85
2023-01-01T10:53:35.936Z,36.04
2023-01-01T10:56:06.530Z,34.81
2023-01-01T10:58:36.857Z,35.17
2023-01-01T11:01:08.812Z,34.87
2023-01-01T11:03:44.861Z,33.95
2023-01-01T11:06:23.258Z,34.06
2023-01-01T11:08:54.212Z,33.97
2023-01-01T11:11:31.988Z,34.03
2023-01-01T11:14:04.779Z,34.46
2023-01-01T11:16:42.373Z,34.74
2023-01-01T11:19:20.903Z,34.52
2023-01-01T11:24:35.151Z,37.84
2023-01-01T11:27:28.186Z,37.10
2023-01-01T11:30:15.572Z,37.17
2023-01-01T11:32:42.643Z,39.20
2023-01-01T11:35:18.057Z,41.26
2023-01-01T11:37:49.413Z,44.54
2023-01-01T11:40:40.466Z,45.49
2023-01-01T11:43:08.770Z,45.13
2023-01-01T11:45:45.034Z,43.53
2023-01-01T11:48:34.095Z,43.92
2023-01-01T11:51:10.235Z,44.30
2023-01-01T11:53:46.607Z,44.32
2023-01-01T11:56:21.039Z,43.26
2023-01-01T11:59:04.768Z,41.53
2023-01-01T12:01:49.377Z,41.12
2023-01-01T12:04:26.283Z,39.58
2023-01-01T12:07:11.086Z,39.07
2023-01-01T12:09:38.112Z,39.25
2023-01-01T12:12:08.201Z,41.46
2023-01-01T12:15:05.769Z,41.04
2023-01-01T12:17:52.376Z,39.30
2023-01-01T12:21:01.453Z,39.30
2023-01-01T12:23:32.022Z,39.62
2023-01-01T12:26:18.273Z,39.44
2023-01-01T12:28:54.791Z,39.13
2023-01-01T12:31:30.911Z,39.42
2023-01-01T12:34:33.832Z,39.05
2023-01-01T12:37:12.716Z,39.79
2023-01-01T12:40:14.955Z,40.42
2023-01-01T12:42:53.994Z,40.63
2023-01-01T12:45:56.733Z,42.94
2023-01-01T12:48:32.593Z,42.76
2023-01-01T12:51:21.569Z,43.43
2023-01-01T12:54:10.213Z,46.48
2023-01-01T12:56:56.000Z,46.09
2023-01-01T12:59:36.181Z,47.38
2023-01-01T13:02:14.754Z,47.83
2023-01-01T13:04:44.944Z,47.62
2023-01-01T13:07:20.870Z,48.01
2023-01-01T13:09:53.773Z,47.46
2023-01-01T13:12:26.434Z,47.59
2023-01-01T13:14:58.082Z,48.14
2023-01-01T13:17:27.064Z,48.02
2023-01-01T13:20:15.516Z,47.58
2023-01-01T13:22:48.861Z,47.44
2023-01-01T13:25:24.258Z,48.15
2023-01-01T13:28:02.638Z,48.28
2023-01-01T13:30:38.405Z,48.92
2023-01-01T13:33:31.605Z,48.47
2023-01-01T13:36:16.206Z,48.10
2023-01-01T13:38:54.378Z,48.45
2023-01-01T13:41:31.453Z,48.19
2023-01-01T13:44:05.600Z,48.25
2023-01-01T13:46:38.911Z,48.04
2023-01-01T13:49:18.815Z,47.68
2023-01-01T13:52:08.715Z,47.17
2023-01-01T13:54:41.640Z,48.29
2023-01-01T13:57:24.464Z,47.91
2023-01-01T14:00:12.278Z,47.74
2023-01-01T14:03:02.234Z,48.79
2023-01-01T14:05:32.944Z,49.43
2023-01-01T14:08:13.005Z,50.14
2023-01-01T14:10:40.693Z,49.57
2023-01-01T14:13:17.654Z,49.44
2023-01-01T14:15:51.010Z,49.05
2023-01-01T14:18:33.084Z,49.43
2023-01-01T14:21:01.249Z,49.31
2023-01-01T14:23:41.719Z,50.19
2023-01-01T14:26:37.432Z,49.74
2023-01-01T14:29:11.630Z,50.57
2023-01-01T14:31:44.007Z,49.81
2023-01-01T14:34:32.710Z,50.11
2023-01-01T14:37:05.538Z,50.70
2023-01-01T14:39:37.695Z,50.17
2023-01-01T14:42:18.220Z,49.99
2023-01-01T14:44:54.614Z,49.66
2023-01-01T14:47:21.965Z,49.69
2023-01-01T14:49:58.314Z,49.85
2023-01-01T14:52:28.012Z,49.73
2023-01-01T14:55:03.215Z,49.97
2023-01-01T14:57:36.792Z,49.24
2023-01-01T15:00:24.634Z,49.13
2023-01-01T15:02:57.323Z,49.65
2023-01-01T15:05:35.410Z,49.51
2023-01-01T15:08:07.058Z,49.39
2023-01-01T15:10:38.928Z,49.64
2023-01-01T15:13:07.845Z,49.81
2023-01-01T15:15:40.667Z,50.59
2023-01-01T15:18:30.123Z,50.01
2023-01-01T15:21:00.624Z,50.08
2023-01-01T15:23:27.934Z,50.15
2023-01-01T15:25:58.387Z,50.29
2023-01-01T15:28:25.627Z,50.34
2023-01-01T15:30:57.506Z,50.89
2023-01-01T15:33:27.699Z,50.74
2023-01-01T15:36:15.144Z,50.57
2023-01-01T15:38:46.387Z,50.83
2023-01-01T15:41:32.253Z,51.23
2023-01-01T15:44:23.013Z,50.97
2023-01-01T15:46:53.712Z,50.89
2023-01-01T15:49:28.042Z,51.26
2023-01-01T15:52:03.925Z,51.40
2023-01-01T15:54:35.983Z,51.26
2023-01-01T15:57:07.640Z,51.02
2023-01-01T15:59:41.097Z,51.38
2023-01-01T16:02:18.244Z,51.58
2023-01-01T16:04:46.964Z,51.79
2023-01-01T16:07:21.181Z,52.43
2023-01-01T16:09:57.419Z,52.30
2023-01-01T16:12:28.279Z,52.58
2023-01-01T16:15:00.552Z,52.75
2023-01-01T16:17:33.613Z,52.48
2023-01-01T16:20:03.207Z,52.92
2023-01-01T16:22:36.832Z,53.03
2023-01-01T16:25:13.523Z,53.18
2023-01-01T16:27:41.052Z,53.30
2023-01-01T16:30:09.688Z,54.29
2023-01-01T16:32:39.852Z,53.69
2023-01-01T16:35:12.112Z,53.83
2023-01-01T16:37:42.288Z,53.82
2023-01-01T16:40:09.995Z,53.92
2023-01-01T16:42:37.048Z,53.87
2023-01-01T16:45:07.751Z,53.73
2023-01-01T16:47:38.227Z,54.21
2023-01-01T16:50:12.908Z,54.03
2023-01-01T16:52:44.744Z,54.57
2023-01-01T16:55:38.427Z,54.36
2023-01-01T16:58:47.455Z,54.71
2023-01-01T17:01:09.988Z,54.76
2023-01-01T17:03:38.976Z,54.70
2023-01-01T17:06:15.544Z,54.97
2023-01-01T17:08:52.712Z,55.03
2023-01-01T17:11:24.349Z,56.01
2023-01-01T17:14:02.928Z,55.88
2023-01-01T17:16:43.439Z,55.93
2023-01-01T17:19:16.554Z,55.59
2023-01-01T17:21:50.713Z,56.74
2023-01-01T17:24:21.284Z,56.48
2023-01-01T17:27:05.955Z,56.61
2023-01-01T17:29:47.159Z,56.78
2023-01-01T17:32:22.209Z,56.33
2023-01-01T17:34:53.196Z,56.11
2023-01-01T17:37:25.567Z,56.43
2023-01-01T17:39:53.030Z,56.39
2023-01-01T17:42:23.340Z,56.84
2023-01-01T17:44:51.522Z,56.45
2023-01-01T17:47:19.688Z,56.83
2023-01-01T17:49:49.423Z,56.86
2023-01-01T17:52:16.604Z,56.84
2023-01-01T17:54:48.993Z,56.72
2023-01-01T17:57:19.551Z,56.63
2023-01-01T17:59:52.772Z,56.67
2023-01-01T18:02:23.836Z,56.75
2023-01-01T18:04:54.799Z,56.81
2023-01-01T18:07:25.042Z,56.65
2023-01-01T18:09:58.289Z,56.57
2023-01-01T18:12:52.732Z,56.48
2023-01-01T18:15:43.891Z,56.08
2023-01-01T18:18:33.765Z,56.31
2023-01-01T18:24:18.725Z,56.51
2023-01-01T18:27:24.721Z,56.51
2023-01-01T18:32:53.822Z,57.03
2023-01-01T18:35:31.123Z,56.89
2023-01-01T18:38:08.507Z,57.00
2023-01-01T18:40:55.592Z,56.99
2023-01-01T18:44:09.728Z,57.14
2023-01-01T18:47:02.881Z,56.95
2023-01-01T18:49:51.772Z,57.17
2023-01-01T18:52:27.311Z,56.82
2023-01-01T18:55:32.878Z,56.56
2023-01-01T18:58:24.539Z,56.49
2023-01-01T19:01:08.606Z,56.33
2023-01-01T19:04:04.177Z,56.21
2023-01-01T19:07:06.072Z,56.00
2023-01-01T19:10:07.816Z,55.93
2023-01-01T19:16:24.195Z,56.00
2023-01-01T19:19:29.763Z,56.04
2023-01-01T19:22:29.633Z,56.02
2023-01-01T19:25:56.401Z,55.83
2023-01-01T19:28:52.743Z,55.96
2023-01-01T19:31:40.908Z,55.63
2023-01-01T19:34:15.833Z,55.62
2023-01-01T19:37:02.291Z,55.50
2023-01-01T19:42:50.893Z,55.21
2023-01-01T19:45:33.249Z,55.19
2023-01-01T19:48:07.442Z,55.10
2023-01-01T19:50:54.767Z,55.27
2023-01-01T19:53:47.843Z,55.02
2023-01-01T19:56:34.200Z,54.93
2023-01-01T19:59:46.805Z,54.85
2023-01-01T20:02:54.879Z,54.65
2023-01-01T20:05:53.411Z,54.94
2023-01-01T20:08:37.700Z,55.34
2023-01-01T20:11:18.962Z,55.06
2023-01-01T20:14:04.245Z,55.33
2023-01-01T20:19:49.367Z,55.23
2023-01-01T20:22:34.438Z,55.16
2023-01-01T20:25:33.710Z,55.10
2023-01-01T20:28:37.848Z,55.31
2023-01-01T20:31:38.166Z,55.23
2023-01-01T20:34:27.125Z,55.23
2023-01-01T20:37:39.117Z,55.39
2023-01-01T20:40:51.062Z,55.38
2023-01-01T20:46:54.588Z,55.82
2023-01-01T20:49:48.074Z,55.61
2023-01-01T20:52:23.475Z,55.47
2023-01-01T20:55:06.814Z,55.50
2023-01-01T20:57:40.789Z,55.34
2023-01-01T21:00:26.583Z,55.48
2023-01-01T21:02:57.953Z,55.63
2023-01-01T21:05:40.227Z,55.64
2023-01-01T21:08:14.039Z,55.60
2023-01-01T21:13:59.406Z,55.81
2023-01-01T21:16:49.105Z,55.59
2023-01-01T21:19:44.451Z,55.51
2023-01-01T21:22:39.627Z,55.57
2023-01-01T21:28:31.501Z,55.50
2023-01-01T21:31:19.362Z,55.40
2023-01-01T21:34:08.395Z,55.16
2023-01-01T21:37:02.538Z,55.51
2023-01-01T21:39:49.958Z,54.98
2023-01-01T21:42:44.949Z,55.02
2023-01-01T21:45:47.191Z,55.11
2023-01-01T21:48:39.002Z,54.78
2023-01-01T21:52:08.843Z,54.98
2023-01-01T21:55:03.852Z,54.67
2023-01-01T21:57:42.141Z,54.52
2023-01-01T22:00:25.077Z,54.77
2023-01-01T22:03:21.313Z,54.83
2023-01-01T22:06:10.233Z,54.70
2023-01-01T22:09:01.225Z,54.91
2023-01-01T22:11:43.266Z,54.56
2023-01-01T22:14:30.590Z,54.32
2023-01-01T22:17:33.495Z,54.77
2023-01-01T22:20:27.694Z,54.46
2023-01-01T22:23:18.018Z,54.51
2023-01-01T22:26:08.876Z,54.29
2023-01-01T22:29:04.395Z,54.08
2023-01-01T22:31:49.356Z,53.77
2023-01-01T22:34:36.049Z,52.91
2023-01-01T22:37:32.101Z,53.17
2023-01-01T22:40:24.003Z,52.94
2023-01-01T22:43:13.675Z,52.79
2023-01-01T22:45:56.717Z,52.87
2023-01-01T22:52:02.712Z,52.66
2023-01-01T22:54:58.796Z,52.45
2023-01-01T22:57:42.784Z,52.21
2023-01-01T23:00:50.037Z,52.15
2023-01-01T23:03:47.448Z,52.00
2023-01-01T23:06:26.375Z,52.10
2023-01-01T23:09:18.103Z,52.13
2023-01-01T23:12:04.854Z,52.01
2023-01-01T23:15:04.906Z,51.71
2023-01-01T23:17:42.712Z,51.71
2023-01-01T23:20:23.989Z,50.85
2023-01-01T23:23:24.030Z,50.76
2023-01-01T23:26:03.293Z,50.54
2023-01-01T23:28:46.279Z,50.39
2023-01-01T23:31:35.014Z,50.22
2023-01-01T23:34:39.997Z,50.48
2023-01-01T23:37:20.448Z,49.50
2023-01-01T23:40:04.276Z,49.52
2023-01-01T23:42:45.409Z,49.50
2023-01-01T23:45:43.735Z,49.48
2023-01-01T23:51:18.093Z,48.83
2023-01-01T23:54:16.686Z,49.25
2023-01-01T23:56:48.855Z,49.13
2023-01-01T23:59:46.738Z,49.22
